createdAt,value
2022-09-12T00:01:11.089Z,2.90
2022-09-12T00:03:39.059Z,3.00
2022-09-12T00:06:18.156Z,3.30
2022-09-12T00:08:49.122Z,3.00
2022-09-12T00:11:16.478Z,3.30
2022-09-12T00:13:43.353Z,3.80
2022-09-12T00:16:18.763Z,3.00
2022-09-12T00:18:47.071Z,2.40
2022-09-12T00:21:15.847Z,2.90
2022-09-12T00:23:43.583Z,3.30
2022-09-12T00:26:10.589Z,3.60
2022-09-12T00:28:39.417Z,3.20
2022-09-12T00:31:08.615Z,3.20
2022-09-12T00:33:36.199Z,3.10
2022-09-12T00:36:07.730Z,3.20
2022-09-12T00:38:38.767Z,1.90
2022-09-12T00:41:06.431Z,2.50
2022-09-12T00:43:41.435Z,2.60
2022-09-12T00:46:26.646Z,2.70
2022-09-12T00:49:23.416Z,2.90
2022-09-12T00:51:58.632Z,3.10
2022-09-12T00:54:28.595Z,2.90
2022-09-12T00:56:56.511Z,3.10
2022-09-12T00:59:29.080Z,1.90
2022-09-12T01:01:56.155Z,1.80
2022-09-12T01:04:24.088Z,2.70
2022-09-12T01:06:51.576Z,2.40
2022-09-12T01:09:20.467Z,2.90
2022-09-12T01:11:48.709Z,2.90
2022-09-12T01:14:16.441Z,2.80
2022-09-12T01:16:45.178Z,2.70
2022-09-12T01:19:49.806Z,1.60
2022-09-12T01:22:40.343Z,1.80
2022-09-12T01:25:36.572Z,2.40
2022-09-12T01:28:14.307Z,2.10
2022-09-12T01:30:51.612Z,2.10
2022-09-12T01:33:36.945Z,2.20
2022-09-12T01:36:28.419Z,2.00
2022-09-12T01:39:14.769Z,1.40
2022-09-12T01:42:03.715Z,1.50
2022-09-12T01:44:39.975Z,1.80
2022-09-12T01:47:45.124Z,1.80
2022-09-12T01:50:19.077Z,1.40
2022-09-12T01:52:56.390Z,0.90
2022-09-12T01:55:28.729Z,0.80
2022-09-12T01:58:00.270Z,0.80
2022-09-12T02:00:27.104Z,0.80
2022-09-12T02:03:03.244Z,0.50
2022-09-12T02:05:35.318Z,0.40
2022-09-12T02:08:17.888Z,0.40
2022-09-12T02:10:54.135Z,0.30
2022-09-12T02:13:32.836Z,0.40
2022-09-12T02:16:04.654Z,0.30
2022-09-12T02:18:31.671Z,0.30
2022-09-12T02:20:58.782Z,0.40
2022-09-12T02:23:29.650Z,0.30
2022-09-12T02:26:00.466Z,0.30
2022-09-12T02:28:33.130Z,0.20
2022-09-12T02:31:20.558Z,0.10
2022-09-12T02:34:09.366Z,0.20
2022-09-12T02:37:01.616Z,0.60
2022-09-12T02:39:28.578Z,0.40
2022-09-12T02:41:56.071Z,0.30
2022-09-12T02:44:23.832Z,0.10
2022-09-12T02:46:54.439Z,0.20
2022-09-12T02:49:21.257Z,0.10
2022-09-12T02:51:48.510Z,0.30
2022-09-12T02:54:15.967Z,0.10
2022-09-12T02:56:43.854Z,0.20
2022-09-12T02:59:13.439Z,0.20
2022-09-12T03:02:14.288Z,1.00
2022-09-12T03:05:36.475Z,0.20
2022-09-12T03:08:05.976Z,0.20
2022-09-12T03:10:33.593Z,0.20
2022-09-12T03:13:25.418Z,0.10
2022-09-12T03:16:00.631Z,0.60
2022-09-12T03:18:46.113Z,0.10
2022-09-12T03:21:15.747Z,0.10
2022-09-12T03:23:44.029Z,0.20
2022-09-12T03:26:17.312Z,0.20
2022-09-12T03:28:45.501Z,0.30
2022-09-12T03:31:16.734Z,0.20
2022-09-12T03:33:43.651Z,0.30
2022-09-12T03:36:19.850Z,0.30
2022-09-12T03:38:47.083Z,0.20
2022-09-12T03:41:15.020Z,0.20
2022-09-12T03:43:43.134Z,0.20
2022-09-12T03:46:10.304Z,0.10
2022-09-12T03:48:37.825Z,0.50
2022-09-12T03:51:05.819Z,0.30
2022-09-12T03:53:33.457Z,0.20
2022-09-12T03:56:01.103Z,0.20
2022-09-12T03:58:31.055Z,0.20
2022-09-12T04:00:58.345Z,0.30
2022-09-12T04:03:25.295Z,0.20
2022-09-12T04:05:52.288Z,0.10
2022-09-12T04:08:19.159Z,0.20
2022-09-12T04:10:46.960Z,0.40
2022-09-12T04:13:14.272Z,0.30
2022-09-12T04:15:43.172Z,0.30
2022-09-12T04:18:10.163Z,0.80
2022-09-12T04:20:38.284Z,0.30
2022-09-12T04:23:05.131Z,0.90
2022-09-12T04:25:32.452Z,0.90
2022-09-12T04:27:59.442Z,1.80
2022-09-12T04:30:26.766Z,3.00
2022-09-12T04:32:53.896Z,3.90
2022-09-12T04:35:20.754Z,4.40
2022-09-12T04:37:47.754Z,3.10
2022-09-12T04:40:14.767Z,3.10
2022-09-12T04:42:41.686Z,3.60
2022-09-12T04:45:09.194Z,3.60
2022-09-12T04:47:37.639Z,2.50
2022-09-12T04:50:05.563Z,2.50
2022-09-12T04:52:32.624Z,4.10
2022-09-12T04:54:59.665Z,5.40
2022-09-12T04:57:26.844Z,5.60
2022-09-12T04:59:54.040Z,5.70
2022-09-12T05:02:21.041Z,6.30
2022-09-12T05:04:48.144Z,6.20
2022-09-12T05:07:15.952Z,3.60
2022-09-12T05:09:43.007Z,3.30
2022-09-12T05:12:15.140Z,1.60
2022-09-12T05:17:09.232Z,0.80
2022-09-12T05:19:37.065Z,0.90
2022-09-12T05:22:05.218Z,0.60
2022-09-12T05:24:32.793Z,0.60
2022-09-12T05:26:59.709Z,0.20
2022-09-12T05:29:26.923Z,0.40
2022-09-12T05:31:54.071Z,0.50
2022-09-12T05:34:21.324Z,0.40
2022-09-12T05:36:48.358Z,0.40
2022-09-12T05:39:15.212Z,0.50
2022-09-12T05:41:42.415Z,0.40
2022-09-12T05:44:14.394Z,0.50
2022-09-12T05:46:43.549Z,0.40
2022-09-12T05:49:12.216Z,0.30
2022-09-12T05:54:08.811Z,0.60
2022-09-12T05:56:40.590Z,0.50
2022-09-12T05:59:12.175Z,0.60
2022-09-12T06:01:39.795Z,0.50
2022-09-12T06:04:08.071Z,0.40
2022-09-12T06:06:41.850Z,0.50
2022-09-12T06:09:09.278Z,0.30
2022-09-12T06:11:37.443Z,0.40
2022-09-12T06:14:04.612Z,0.40
2022-09-12T06:16:33.440Z,0.70
2022-09-12T06:19:08.224Z,0.60
2022-09-12T06:21:37.938Z,1.10
2022-09-12T06:24:05.105Z,0.70
2022-09-12T06:26:32.004Z,0.40
2022-09-12T06:29:00.252Z,0.70
2022-09-12T06:31:29.583Z,0.40
2022-09-12T06:33:57.545Z,0.40
2022-09-12T06:36:26.295Z,0.60
2022-09-12T06:39:01.040Z,0.60
2022-09-12T06:41:29.230Z,0.60
2022-09-12T06:43:55.992Z,0.60
2022-09-12T06:46:22.989Z,0.60
2022-09-12T06:48:50.847Z,0.60
2022-09-12T06:51:18.831Z,0.50
2022-09-12T06:53:46.403Z,0.50
2022-09-12T06:56:14.162Z,0.80
2022-09-12T06:58:41.746Z,1.00
2022-09-12T07:01:12.554Z,1.10
2022-09-12T07:03:40.247Z,0.90
2022-09-12T07:06:11.679Z,0.90
2022-09-12T07:08:39.337Z,1.00
2022-09-12T07:11:15.248Z,0.80
2022-09-12T07:13:45.265Z,1.10
2022-09-12T07:16:17.291Z,1.20
2022-09-12T07:19:07.428Z,1.20
2022-09-12T07:21:40.211Z,1.20
2022-09-12T07:24:11.772Z,1.30
2022-09-12T07:26:40.326Z,1.20
2022-09-12T07:31:54.820Z,0.90
2022-09-12T07:34:21.889Z,0.90
2022-09-12T07:36:48.708Z,1.10
2022-09-12T07:39:15.757Z,1.10
2022-09-12T07:41:43.144Z,1.10
2022-09-12T07:44:09.997Z,1.00
2022-09-12T07:46:40.204Z,1.20
2022-09-12T07:49:08.496Z,0.80
2022-09-12T07:51:36.137Z,0.70
2022-09-12T07:54:07.093Z,0.50
2022-09-12T07:56:38.925Z,0.70
2022-09-12T07:59:10.990Z,1.30
2022-09-12T08:01:39.502Z,2.00
2022-09-12T08:04:06.821Z,1.90
2022-09-12T08:06:36.278Z,2.00
2022-09-12T08:09:03.585Z,1.20
2022-09-12T08:11:30.693Z,0.70
2022-09-12T08:13:58.205Z,0.90
2022-09-12T08:16:27.493Z,0.80
2022-09-12T08:18:54.577Z,0.80
2022-09-12T08:21:23.469Z,0.70
2022-09-12T08:24:01.539Z,1.30
2022-09-12T08:26:29.468Z,1.90
2022-09-12T08:28:56.473Z,2.30
2022-09-12T08:31:24.625Z,1.30
2022-09-12T08:33:52.174Z,2.00
2022-09-12T08:36:21.398Z,2.00
2022-09-12T08:39:01.840Z,1.70
2022-09-12T08:41:35.085Z,1.50
2022-09-12T08:44:26.841Z,1.70
2022-09-12T08:47:12.660Z,2.40
2022-09-12T08:49:59.157Z,3.40
2022-09-12T08:52:44.573Z,2.90
2022-09-12T08:55:23.109Z,3.80
2022-09-12T08:57:50.747Z,2.00
2022-09-12T09:00:18.801Z,2.20
2022-09-12T09:03:00.336Z,2.60
2022-09-12T09:05:40.446Z,3.90
2022-09-12T09:08:40.197Z,2.70
2022-09-12T09:11:27.038Z,3.00
2022-09-12T09:14:32.339Z,1.50
2022-09-12T09:16:59.410Z,1.30
2022-09-12T09:19:38.326Z,2.10
2022-09-12T09:22:08.459Z,1.30
2022-09-12T09:24:44.016Z,1.00
2022-09-12T09:27:45.646Z,2.30
2022-09-12T09:30:19.897Z,1.00
2022-09-12T09:32:53.713Z,1.00
2022-09-12T09:35:36.226Z,0.70
2022-09-12T09:38:37.638Z,0.70
2022-09-12T09:41:23.352Z,0.70
2022-09-12T09:43:50.197Z,0.80
2022-09-12T09:46:17.280Z,0.70
2022-09-12T09:48:46.487Z,0.60
2022-09-12T09:51:13.418Z,0.50
2022-09-12T09:54:12.982Z,0.50
2022-09-12T09:56:40.904Z,0.50
2022-09-12T09:59:16.857Z,0.50
2022-09-12T10:02:05.184Z,0.40
2022-09-12T10:04:40.587Z,0.60
2022-09-12T10:07:18.990Z,0.40
2022-09-12T10:10:07.423Z,0.60
2022-09-12T10:12:34.589Z,0.50
2022-09-12T10:15:23.214Z,0.60
2022-09-12T10:17:50.784Z,0.50
2022-09-12T10:20:43.316Z,0.50
2022-09-12T10:23:19.491Z,0.80
2022-09-12T10:25:54.134Z,0.80
2022-09-12T10:28:25.673Z,1.00
2022-09-12T10:30:55.181Z,0.90
2022-09-12T10:33:23.252Z,1.90
2022-09-12T10:35:50.267Z,5.80
2022-09-12T10:38:32.368Z,6.60
2022-09-12T10:41:09.690Z,2.60
2022-09-12T10:43:37.751Z,3.50
2022-09-12T10:46:20.014Z,9.50
2022-09-12T10:48:48.857Z,3.80
2022-09-12T10:51:24.825Z,1.30
2022-09-12T10:54:00.078Z,3.60
2022-09-12T10:56:39.546Z,1.70
2022-09-12T10:59:39.780Z,12.90
2022-09-12T11:02:27.967Z,1.50
2022-09-12T11:05:01.567Z,1.20
2022-09-12T11:07:37.679Z,1.50
2022-09-12T11:10:13.771Z,1.00
2022-09-12T11:12:53.204Z,1.10
2022-09-12T11:15:38.900Z,1.20
2022-09-12T11:18:19.704Z,1.50
2022-09-12T11:21:05.391Z,1.10
2022-09-12T11:23:54.687Z,0.90
2022-09-12T11:26:59.108Z,1.00
2022-09-12T11:29:35.165Z,1.00
2022-09-12T11:32:33.362Z,0.90
2022-09-12T11:35:12.802Z,0.80
2022-09-12T11:38:19.268Z,0.80
2022-09-12T11:40:57.427Z,0.80
2022-09-12T11:43:43.046Z,1.00
2022-09-12T11:46:36.199Z,1.00
2022-09-12T11:49:09.377Z,0.90
2022-09-12T11:51:57.000Z,0.90
2022-09-12T11:54:51.476Z,0.90
2022-09-12T11:57:48.653Z,1.00
2022-09-12T12:00:30.455Z,0.80
2022-09-12T12:03:10.276Z,0.80
2022-09-12T12:05:58.944Z,0.80
2022-09-12T12:08:26.616Z,0.80
2022-09-12T12:10:56.461Z,0.90
2022-09-12T12:13:27.970Z,0.70
2022-09-12T12:16:04.132Z,0.80
2022-09-12T12:18:32.742Z,0.80
2022-09-12T12:21:40.147Z,0.60
2022-09-12T12:24:10.033Z,0.70
2022-09-12T12:26:41.165Z,0.70
2022-09-12T12:29:17.128Z,0.70
2022-09-12T12:32:03.653Z,0.60
2022-09-12T12:34:32.328Z,0.80
2022-09-12T12:38:39.390Z,0.90
2022-09-12T12:41:18.321Z,1.00
2022-09-12T12:43:48.778Z,1.00
2022-09-12T12:46:17.007Z,1.30
2022-09-12T12:48:50.598Z,1.00
2022-09-12T12:51:28.210Z,2.70
2022-09-12T12:53:55.129Z,1.00
2022-09-12T12:56:26.391Z,1.10
2022-09-12T12:59:01.338Z,0.90
2022-09-12T13:01:28.337Z,0.90
2022-09-12T13:04:04.445Z,0.90
2022-09-12T13:06:38.031Z,1.20
2022-09-12T13:09:10.042Z,1.20
2022-09-12T13:11:38.540Z,1.10
2022-09-12T13:14:28.471Z,1.30
2022-09-12T13:16:58.325Z,1.20
2022-09-12T13:19:35.308Z,1.10
2022-09-12T13:22:06.931Z,0.90
2022-09-12T13:24:34.755Z,0.90
2022-09-12T13:27:02.546Z,0.90
2022-09-12T13:29:29.793Z,1.10
2022-09-12T13:31:58.224Z,1.20
2022-09-12T13:34:31.608Z,0.90
2022-09-12T13:37:13.599Z,1.50
2022-09-12T13:39:51.140Z,1.50
2022-09-12T13:42:42.816Z,4.10
2022-09-12T13:45:18.840Z,4.50
2022-09-12T13:47:47.696Z,3.60
2022-09-12T13:50:25.596Z,5.60
2022-09-12T13:52:57.584Z,1.80
2022-09-12T13:55:32.674Z,1.80
2022-09-12T13:58:24.074Z,2.20
2022-09-12T14:01:06.881Z,2.30
2022-09-12T14:03:58.940Z,1.50
2022-09-12T14:06:27.842Z,2.20
2022-09-12T14:09:01.484Z,2.00
2022-09-12T14:11:30.692Z,2.20
2022-09-12T14:13:58.263Z,1.80
2022-09-12T14:16:28.485Z,3.40
2022-09-12T14:18:56.455Z,3.20
2022-09-12T14:21:30.552Z,2.60
2022-09-12T14:23:57.893Z,4.70
2022-09-12T14:26:24.782Z,2.00
2022-09-12T14:28:51.653Z,1.00
2022-09-12T14:31:29.051Z,0.80
2022-09-12T14:34:17.359Z,1.00
2022-09-12T14:36:46.096Z,0.80
2022-09-12T14:39:38.048Z,0.90
2022-09-12T14:42:19.090Z,0.70
2022-09-12T14:44:58.498Z,0.80
2022-09-12T14:47:27.550Z,0.80
2022-09-12T14:49:54.634Z,0.80
2022-09-12T14:52:27.777Z,1.00
2022-09-12T14:55:22.719Z,1.10
2022-09-12T14:58:12.568Z,1.10
2022-09-12T15:00:52.696Z,1.10
2022-09-12T15:03:32.370Z,1.30
2022-09-12T15:05:59.983Z,1.20
2022-09-12T15:08:26.951Z,1.10
2022-09-12T15:10:53.788Z,0.90
2022-09-12T15:13:26.174Z,1.00
2022-09-12T15:15:57.496Z,0.90
2022-09-12T15:18:26.527Z,1.20
2022-09-12T15:20:58.747Z,1.00
2022-09-12T15:23:35.297Z,1.00
2022-09-12T15:26:02.625Z,1.00
2022-09-12T15:28:30.349Z,1.10
2022-09-12T15:30:58.074Z,1.10
2022-09-12T15:33:25.202Z,1.00
2022-09-12T15:35:52.655Z,0.90
2022-09-12T15:38:23.172Z,1.70
2022-09-12T15:40:54.064Z,0.80
2022-09-12T15:43:22.025Z,1.00
2022-09-12T15:45:50.596Z,1.10
2022-09-12T15:48:18.260Z,1.40
2022-09-12T15:50:45.043Z,3.80
2022-09-12T15:53:14.673Z,8.40
2022-09-12T15:55:41.840Z,11.80
2022-09-12T15:58:09.321Z,10.30
2022-09-12T16:00:36.767Z,7.90
2022-09-12T16:03:04.012Z,5.80
2022-09-12T16:05:31.422Z,6.30
2022-09-12T16:07:58.385Z,6.40
2022-09-12T16:10:27.989Z,6.70
2022-09-12T16:12:54.934Z,7.10
2022-09-12T16:15:24.363Z,6.00
2022-09-12T16:17:51.615Z,6.00
2022-09-12T16:20:19.354Z,5.80
2022-09-12T16:22:46.500Z,6.40
2022-09-12T16:25:14.817Z,4.50
2022-09-12T16:27:42.430Z,5.50
2022-09-12T16:30:10.199Z,5.60
2022-09-12T16:32:38.464Z,5.90
2022-09-12T16:35:06.340Z,6.30
2022-09-12T16:37:34.738Z,5.90
2022-09-12T16:40:03.902Z,7.20
2022-09-12T16:42:31.203Z,6.90
2022-09-12T16:44:58.110Z,5.90
2022-09-12T16:47:25.141Z,4.80
2022-09-12T16:49:52.413Z,5.10
2022-09-12T16:52:19.715Z,5.00
2022-09-12T16:54:46.707Z,5.50
2022-09-12T16:57:13.822Z,5.90
2022-09-12T16:59:40.733Z,5.30
2022-09-12T17:02:09.799Z,5.10
2022-09-12T17:04:36.838Z,6.60
2022-09-12T17:07:07.467Z,5.90
2022-09-12T17:09:35.351Z,4.60
2022-09-12T17:12:02.701Z,4.30
2022-09-12T17:14:29.787Z,4.40
2022-09-12T17:16:58.421Z,5.20
2022-09-12T17:19:26.904Z,4.40
2022-09-12T17:21:54.307Z,4.70
2022-09-12T17:24:21.607Z,5.00
2022-09-12T17:26:49.268Z,5.00
2022-09-12T17:29:16.724Z,4.80
2022-09-12T17:31:44.282Z,3.10
2022-09-12T17:34:14.771Z,3.20
2022-09-12T17:36:44.615Z,2.90
2022-09-12T17:39:12.629Z,2.90
2022-09-12T17:41:43.038Z,3.10
2022-09-12T17:44:13.785Z,2.60
2022-09-12T17:46:41.578Z,2.60
2022-09-12T17:49:11.933Z,3.30
2022-09-12T17:51:40.213Z,2.10
2022-09-12T17:54:12.488Z,2.20
2022-09-12T17:56:39.732Z,2.50
2022-09-12T17:59:07.598Z,2.70
2022-09-12T18:01:53.776Z,2.70
2022-09-12T18:04:20.907Z,2.70
2022-09-12T18:06:49.648Z,2.90
2022-09-12T18:09:23.637Z,2.70
2022-09-12T18:11:51.196Z,2.80
2022-09-12T18:14:18.453Z,1.90
2022-09-12T18:16:46.344Z,1.80
2022-09-12T18:19:13.776Z,1.90
2022-09-12T18:21:40.931Z,2.00
2022-09-12T18:24:09.090Z,1.90
2022-09-12T18:26:37.263Z,2.20
2022-09-12T18:29:04.515Z,2.20
2022-09-12T18:31:32.206Z,2.40
2022-09-12T18:34:02.864Z,2.40
2022-09-12T18:36:30.789Z,1.70
2022-09-12T18:38:59.277Z,2.00
2022-09-12T18:41:27.531Z,2.10
2022-09-12T18:43:55.909Z,2.00
2022-09-12T18:46:23.020Z,2.40
2022-09-12T18:48:50.718Z,2.30
2022-09-12T18:51:22.065Z,2.20
2022-09-12T18:53:56.650Z,2.60
2022-09-12T18:56:24.828Z,1.70
2022-09-12T18:58:54.053Z,1.80
2022-09-12T19:01:22.936Z,1.80
2022-09-12T19:03:50.201Z,2.10
2022-09-12T19:06:19.216Z,2.00
2022-09-12T19:08:48.219Z,2.20
2022-09-12T19:11:15.848Z,2.20
2022-09-12T19:13:44.958Z,2.30
2022-09-12T19:16:14.698Z,2.20
2022-09-12T19:18:42.005Z,2.30
2022-09-12T19:21:13.452Z,1.80
2022-09-12T19:23:40.705Z,1.50
2022-09-12T19:26:09.199Z,1.80
2022-09-12T19:28:36.231Z,2.30
2022-09-12T19:31:07.428Z,2.10
2022-09-12T19:33:35.038Z,2.00
2022-09-12T19:36:04.432Z,1.90
2022-09-12T19:38:31.688Z,1.10
2022-09-12T19:41:00.962Z,1.50
2022-09-12T19:43:28.136Z,1.60
2022-09-12T19:45:56.135Z,1.80
2022-09-12T19:48:23.200Z,1.70
2022-09-12T19:50:50.715Z,1.70
2022-09-12T19:53:18.474Z,1.50
2022-09-12T19:55:45.977Z,1.80
2022-09-12T19:58:13.486Z,1.20
2022-09-12T20:00:40.764Z,1.20
2022-09-12T20:03:08.092Z,1.40
2022-09-12T20:05:38.491Z,1.30
2022-09-12T20:08:10.281Z,1.60
2022-09-12T20:10:37.447Z,1.40
2022-09-12T20:13:04.884Z,1.40
2022-09-12T20:15:31.732Z,1.60
2022-09-12T20:18:01.330Z,1.10
2022-09-12T20:20:28.329Z,1.00
2022-09-12T20:22:55.587Z,1.30
2022-09-12T20:25:22.496Z,1.90
2022-09-12T20:27:49.328Z,1.40
2022-09-12T20:30:16.671Z,1.40
2022-09-12T20:32:43.742Z,1.80
2022-09-12T20:35:10.660Z,1.50
2022-09-12T20:37:40.124Z,1.30
2022-09-12T20:40:08.272Z,1.30
2022-09-12T20:42:36.814Z,1.50
2022-09-12T20:45:05.007Z,1.70
2022-09-12T20:47:32.031Z,1.40
2022-09-12T20:49:59.179Z,1.60
2022-09-12T20:52:26.203Z,1.50
2022-09-12T20:54:53.366Z,1.50
2022-09-12T20:57:20.244Z,1.00
2022-09-12T20:59:47.577Z,1.60
2022-09-12T21:02:15.324Z,1.20
2022-09-12T21:04:42.240Z,1.00
2022-09-12T21:07:09.652Z,1.30
2022-09-12T21:09:36.569Z,1.10
2022-09-12T21:12:03.657Z,1.50
2022-09-12T21:14:33.573Z,1.40
2022-09-12T21:17:00.547Z,1.00
2022-09-12T21:19:27.340Z,1.20
2022-09-12T21:21:54.369Z,1.20
2022-09-12T21:24:21.448Z,1.20
2022-09-12T21:26:48.442Z,1.20
2022-09-12T21:29:15.446Z,1.50
2022-09-12T21:31:43.177Z,1.50
2022-09-12T21:34:10.202Z,1.60
2022-09-12T21:36:38.667Z,1.10
2022-09-12T21:39:05.518Z,2.00
2022-09-12T21:41:32.608Z,1.30
2022-09-12T21:43:59.664Z,1.40
2022-09-12T21:46:26.548Z,1.30
2022-09-12T21:48:53.951Z,1.30
2022-09-12T21:51:21.258Z,1.30
2022-09-12T21:53:48.293Z,1.50
2022-09-12T21:56:15.450Z,1.00
2022-09-12T21:58:42.594Z,1.40
2022-09-12T22:01:11.057Z,1.10
2022-09-12T22:03:37.938Z,1.30
2022-09-12T22:06:06.904Z,1.30
2022-09-12T22:08:36.046Z,1.40
2022-09-12T22:11:05.725Z,1.80
2022-09-12T22:13:33.986Z,1.60
2022-09-12T22:16:03.702Z,1.00
2022-09-12T22:18:35.029Z,1.40
2022-09-12T22:21:04.323Z,1.40
2022-09-12T22:26:17.276Z,2.30
2022-09-12T22:28:44.364Z,1.80
2022-09-12T22:31:12.433Z,2.20
2022-09-12T22:33:40.012Z,2.00
2022-09-12T22:36:07.355Z,1.30
2022-09-12T22:38:34.708Z,1.70
2022-09-12T22:41:09.253Z,1.60
2022-09-12T22:43:36.729Z,2.20
2022-09-12T22:46:07.852Z,2.30
2022-09-12T22:48:37.524Z,2.30
2022-09-12T22:51:05.074Z,2.40
2022-09-12T22:53:32.601Z,2.10
2022-09-12T22:56:00.075Z,1.40
2022-09-12T22:58:27.048Z,1.80
2022-09-12T23:00:54.555Z,1.90
2022-09-12T23:03:21.827Z,2.00
2022-09-12T23:05:49.108Z,2.50
2022-09-12T23:08:16.955Z,2.50
2022-09-12T23:10:44.097Z,2.40
2022-09-12T23:13:11.405Z,1.80
2022-09-12T23:15:38.399Z,1.40
2022-09-12T23:18:05.642Z,1.50
2022-09-12T23:20:32.808Z,1.70
2022-09-12T23:22:59.823Z,1.60
2022-09-12T23:25:26.906Z,2.20
2022-09-12T23:27:54.142Z,1.90
2022-09-12T23:30:21.717Z,1.80
2022-09-12T23:32:49.534Z,2.00
2022-09-12T23:35:19.489Z,1.40
2022-09-12T23:37:47.059Z,1.50
2022-09-12T23:40:14.621Z,1.60
2022-09-12T23:42:41.864Z,1.60
2022-09-12T23:45:10.136Z,1.90
2022-09-12T23:47:38.097Z,2.10
2022-09-12T23:50:05.379Z,1.70
2022-09-12T23:52:32.713Z,2.00
2022-09-12T23:54:59.738Z,1.10
2022-09-12T23:57:26.575Z,1.30
2022-09-12T23:59:53.975Z,1.40
